Nissos Mykonos — SYJZ — position and weather

sailwx.info

Track history (hours):
 
Tides and Currents Weather Stations Pressure Air Temp Water Temp Dewpoint Dewpoint Depression Visibility Wind Speed Wind Dir Waves Ship Positions

Nissos Mykonos

Last reported at 2015-Jan-30 08:33 UTC. Time now 2015-Jan-30 09:29 UTC.
Position N 37°57' E 023°38'.

Length 141 m; draft 5.2 m.

Type: Passenger vessel. MMSI: 240389000.

Date/timePositionNaut miles runAvg speedWind from/ knotsBaromVisibWave heightAir tempDewpointWater temp
2015-Jan-30 08:33N 37°57' E 023°38'0 0.0
2015-Jan-30 07:33N 37°57' E 023°38'0 0.0
2015-Jan-30 06:33N 37°57' E 023°38'0 0.0
2015-Jan-30 05:33N 37°57' E 023°38'0 0.0
2015-Jan-30 04:33N 37°57' E 023°38'0 0.0
2015-Jan-30 03:33N 37°57' E 023°38'0 0.0
2015-Jan-30 02:33N 37°57' E 023°38'0 0.0
2015-Jan-30 01:33N 37°57' E 023°38'0 0.0
2015-Jan-30 00:33N 37°57' E 023°38'0 0.0
2015-Jan-29 23:33N 37°57' E 023°38'0 0.0
2015-Jan-29 22:33N 37°57' E 023°38'0 0.0
2015-Jan-29 21:33N 37°57' E 023°38'1 1.1
2015-Jan-29 20:34N 37°56' E 023°37'2919.8
2015-Jan-29 19:05N 37°35' E 024°03'3321.7
2015-Jan-29 17:33N 37°31' E 024°44'1212.5
2015-Jan-29 16:34N 37°26' E 024°58'1716.9
2015-Jan-29 15:33N 37°28' E 025°19'1716.4
2015-Jan-29 14:33N 37°31' E 025°40'156 9.6
2015-Jan-28 22:16N 40°03' E 024°54'1621.9
2015-Jan-28 21:33N 40°17' E 024°43'2221.8
2015-Jan-28 20:34N 40°36' E 024°30'2120.6
2015-Jan-28 19:33N 40°56' E 024°25'0 0.1
2015-Jan-28 18:33N 40°56' E 024°25'0 0.0
2015-Jan-28 17:34N 40°56' E 024°25'0 0.0
2015-Jan-28 16:34N 40°56' E 024°25'4 4.4
2015-Jan-28 15:33N 40°51' E 024°25'2121.5
2015-Jan-28 14:33N 40°31' E 024°32'18710.4
2015-Jan-27 20:32N 37°31' E 025°41'1817.8
2015-Jan-27 19:33N 37°28' E 025°19'1515.4
2015-Jan-27 18:33N 37°26' E 024°60'9 8.7
2015-Jan-27 17:33N 37°32' E 024°51'5121.1
2015-Jan-27 15:09N 37°39' E 023°48'1220.4
2015-Jan-27 14:33N 37°48' E 023°38'8 8.4
2015-Jan-27 13:33N 37°57' E 023°38'0 0.0
2015-Jan-27 12:33N 37°57' E 023°38'0 0.0
2015-Jan-27 11:33N 37°57' E 023°38'0 0.0
2015-Jan-27 10:33N 37°57' E 023°38'0 0.0
2015-Jan-27 09:33N 37°57' E 023°38'0 0.0
2015-Jan-27 08:33N 37°57' E 023°38'0 0.0
2015-Jan-27 07:33N 37°57' E 023°38'0 0.0
2015-Jan-27 06:33N 37°57' E 023°38'0 0.0
2015-Jan-27 05:33N 37°57' E 023°38'0 0.0
2015-Jan-27 04:33N 37°57' E 023°38'0 0.0
2015-Jan-27 03:33N 37°57' E 023°38'0 0.0
2015-Jan-27 02:33N 37°57' E 023°38'0 0.0
2015-Jan-27 01:33N 37°57' E 023°38'0 0.0
2015-Jan-27 00:33N 37°57' E 023°38'0 0.0
2015-Jan-26 23:33N 37°57' E 023°38'0 0.0
2015-Jan-26 22:33N 37°57' E 023°38'0 0.0
2015-Jan-26 21:33N 37°57' E 023°38'0 0.0
2015-Jan-26 20:33N 37°57' E 023°38'0 0.0
2015-Jan-26 19:33N 37°57' E 023°38'0 0.0
2015-Jan-26 18:33N 37°57' E 023°38'0 0.0
2015-Jan-26 17:33N 37°57' E 023°38'0 0.0
2015-Jan-26 16:33N 37°57' E 023°38'0 0.0
2015-Jan-26 15:33N 37°57' E 023°38'0 0.0
2015-Jan-26 14:33N 37°57' E 023°38'0 0.0
2015-Jan-26 13:33N 37°57' E 023°38'0 0.0
2015-Jan-26 12:33N 37°57' E 023°38'0 0.0
2015-Jan-26 11:33N 37°57' E 023°38'0 0.0
2015-Jan-26 10:33N 37°57' E 023°38'0 0.0
2015-Jan-26 09:33N 37°57' E 023°38'0 0.0
2015-Jan-26 08:33N 37°57' E 023°38'0 0.0
2015-Jan-26 07:33N 37°57' E 023°38'0 0.0
2015-Jan-26 06:34N 37°57' E 023°38'0 0.0
2015-Jan-26 05:34N 37°57' E 023°38'0 0.0
2015-Jan-26 04:33N 37°57' E 023°38'0 0.0
2015-Jan-26 03:33N 37°57' E 023°38'0 0.0
2015-Jan-26 02:33N 37°57' E 023°38'0 0.0
2015-Jan-26 01:33N 37°57' E 023°38'0 0.0
2015-Jan-26 00:33N 37°57' E 023°38'0 0.0
2015-Jan-25 23:33N 37°57' E 023°38'0 0.0
2015-Jan-25 22:33N 37°57' E 023°38'0 0.0
2015-Jan-25 21:33N 37°57' E 023°38'1616.4
2015-Jan-25 20:33N 37°41' E 023°46'4720.8
2015-Jan-25 18:18N 37°31' E 024°44'1114.9
2015-Jan-25 17:33N 37°26' E 024°57'1818.3
2015-Jan-25 16:33N 37°28' E 025°19'1716.7
2015-Jan-25 15:33N 37°35' E 025°39'168 9.3
2015-Jan-24 21:33N 40°17' E 024°43'2221.6
2015-Jan-24 20:33N 40°36' E 024°30'2020.3
2015-Jan-24 19:33N 40°56' E 024°25'0 0.1
2015-Jan-24 18:34N 40°56' E 024°25'0 0.0
2015-Jan-24 17:34N 40°56' E 024°25'0 0.0
2015-Jan-24 16:34N 40°56' E 024°25'9 9.4
2015-Jan-24 15:33N 40°47' E 024°27'2221.8
2015-Jan-24 14:33N 40°26' E 024°36'2921.8
2015-Jan-24 13:15N 40°01' E 024°54'151 8.9
2015-Jan-23 20:20N 37°33' E 025°35'1418.5
2015-Jan-23 19:33N 37°28' E 025°19'1515.4
2015-Jan-23 18:34N 37°26' E 024°59'10 9.9
2015-Jan-23 17:34N 37°32' E 024°49'5020.6
2015-Jan-23 15:08N 37°39' E 023°47'1119.8
2015-Jan-23 14:34N 37°48' E 023°38'9 8.5
2015-Jan-23 13:33N 37°57' E 023°38'0 0.0
2015-Jan-23 12:33N 37°57' E 023°38'0 0.0
2015-Jan-23 11:33N 37°57' E 023°38'0 0.0
2015-Jan-23 10:33N 37°57' E 023°38'0 0.0
2015-Jan-23 09:33N 37°57' E 023°38'0 0.0
2015-Jan-23 07:23N 37°57' E 023°38'0 0.0
2015-Jan-23 06:33N 37°57' E 023°38'0 0.0
2015-Jan-23 05:33N 37°57' E 023°38'0 0.0
2015-Jan-23 04:33N 37°57' E 023°38'0 0.0
2015-Jan-23 03:33N 37°57' E 023°38'0 0.0
2015-Jan-23 02:33N 37°57' E 023°38'0 0.0
2015-Jan-23 01:33N 37°57' E 023°38'0 0.0
2015-Jan-23 00:33N 37°57' E 023°38'0 0.0
2015-Jan-22 23:33N 37°57' E 023°38'0 0.0
2015-Jan-22 22:33N 37°57' E 023°38'0 0.0
2015-Jan-22 21:33N 37°57' E 023°38'0 0.2
2015-Jan-22 20:33N 37°56' E 023°38'1919.4
2015-Jan-22 19:33N 37°39' E 023°50'4421.8
2015-Jan-22 17:33N 37°31' E 024°44'1413.8
2015-Jan-22 16:33N 37°27' E 025°00'1414.1
2015-Jan-22 15:33N 37°29' E 025°18'2620.8
2015-Jan-22 14:19N 37°30' E 025°50'19911.1
2015-Jan-21 20:26N 40°39' E 024°29'1719.3
2015-Jan-21 19:34N 40°56' E 024°25'0 0.0
2015-Jan-21 18:33N 40°56' E 024°25'0 0.0
2015-Jan-21 17:34N 40°56' E 024°25'0 0.0
2015-Jan-21 16:33N 40°56' E 024°25'1312.6
2015-Jan-21 15:34N 40°43' E 024°28'20010.5
2015-Jan-20 20:33N 37°31' E 025°39'1616.3
2015-Jan-20 19:34N 37°28' E 025°19'1716.6
2015-Jan-20 18:33N 37°26' E 024°59'9 9.4
2015-Jan-20 17:33N 37°32' E 024°49'4220.5
2015-Jan-20 15:31N 37°36' E 023°56'1819.0
2015-Jan-20 14:33N 37°48' E 023°38'9 9.0
2015-Jan-20 13:33N 37°57' E 023°38'0 0.0
2015-Jan-20 12:33N 37°57' E 023°38'0 0.0
2015-Jan-20 11:33N 37°57' E 023°38'0 0.0
2015-Jan-20 10:33N 37°57' E 023°38'0 0.0
2015-Jan-20 09:33N 37°57' E 023°38'0 0.0
2015-Jan-20 08:33N 37°57' E 023°38'  
Track history (hours):
 
Tides and Currents Weather Stations Pressure Air Temp Water Temp Dewpoint Dewpoint Depression Visibility Wind Speed Wind Dir Waves Ship Positions

Nissos Mykonos

Last reported at 2015-Jan-30 08:33 UTC. Time now 2015-Jan-30 09:29 UTC.
Position N 37°57' E 023°38'.

Length 141 m; draft 5.2 m.

Type: Passenger vessel. MMSI: 240389000.

Date/timePositionNaut miles runAvg speedWind from/ knotsBaromVisibWave heightAir tempDewpointWater temp
2015-Jan-30 08:33N 37°57' E 023°38'0 0.0
2015-Jan-30 07:33N 37°57' E 023°38'0 0.0
2015-Jan-30 06:33N 37°57' E 023°38'0 0.0
2015-Jan-30 05:33N 37°57' E 023°38'0 0.0
2015-Jan-30 04:33N 37°57' E 023°38'0 0.0
2015-Jan-30 03:33N 37°57' E 023°38'0 0.0
2015-Jan-30 02:33N 37°57' E 023°38'0 0.0
2015-Jan-30 01:33N 37°57' E 023°38'0 0.0
2015-Jan-30 00:33N 37°57' E 023°38'0 0.0
2015-Jan-29 23:33N 37°57' E 023°38'0 0.0
2015-Jan-29 22:33N 37°57' E 023°38'0 0.0
2015-Jan-29 21:33N 37°57' E 023°38'1 1.1
2015-Jan-29 20:34N 37°56' E 023°37'2919.8
2015-Jan-29 19:05N 37°35' E 024°03'3321.7
2015-Jan-29 17:33N 37°31' E 024°44'1212.5
2015-Jan-29 16:34N 37°26' E 024°58'1716.9
2015-Jan-29 15:33N 37°28' E 025°19'1716.4
2015-Jan-29 14:33N 37°31' E 025°40'156 9.6
2015-Jan-28 22:16N 40°03' E 024°54'1621.9
2015-Jan-28 21:33N 40°17' E 024°43'2221.8
2015-Jan-28 20:34N 40°36' E 024°30'2120.6
2015-Jan-28 19:33N 40°56' E 024°25'0 0.1
2015-Jan-28 18:33N 40°56' E 024°25'0 0.0
2015-Jan-28 17:34N 40°56' E 024°25'0 0.0
2015-Jan-28 16:34N 40°56' E 024°25'4 4.4
2015-Jan-28 15:33N 40°51' E 024°25'2121.5
2015-Jan-28 14:33N 40°31' E 024°32'18710.4
2015-Jan-27 20:32N 37°31' E 025°41'1817.8
2015-Jan-27 19:33N 37°28' E 025°19'1515.4
2015-Jan-27 18:33N 37°26' E 024°60'9 8.7
2015-Jan-27 17:33N 37°32' E 024°51'5121.1
2015-Jan-27 15:09N 37°39' E 023°48'1220.4
2015-Jan-27 14:33N 37°48' E 023°38'8 8.4
2015-Jan-27 13:33N 37°57' E 023°38'0 0.0
2015-Jan-27 12:33N 37°57' E 023°38'0 0.0
2015-Jan-27 11:33N 37°57' E 023°38'0 0.0
2015-Jan-27 10:33N 37°57' E 023°38'0 0.0
2015-Jan-27 09:33N 37°57' E 023°38'0 0.0
2015-Jan-27 08:33N 37°57' E 023°38'0 0.0
2015-Jan-27 07:33N 37°57' E 023°38'0 0.0
2015-Jan-27 06:33N 37°57' E 023°38'0 0.0
2015-Jan-27 05:33N 37°57' E 023°38'0 0.0
2015-Jan-27 04:33N 37°57' E 023°38'0 0.0
2015-Jan-27 03:33N 37°57' E 023°38'0 0.0
2015-Jan-27 02:33N 37°57' E 023°38'0 0.0
2015-Jan-27 01:33N 37°57' E 023°38'0 0.0
2015-Jan-27 00:33N 37°57' E 023°38'0 0.0
2015-Jan-26 23:33N 37°57' E 023°38'0 0.0
2015-Jan-26 22:33N 37°57' E 023°38'0 0.0
2015-Jan-26 21:33N 37°57' E 023°38'0 0.0
2015-Jan-26 20:33N 37°57' E 023°38'0 0.0
2015-Jan-26 19:33N 37°57' E 023°38'0 0.0
2015-Jan-26 18:33N 37°57' E 023°38'0 0.0
2015-Jan-26 17:33N 37°57' E 023°38'0 0.0
2015-Jan-26 16:33N 37°57' E 023°38'0 0.0
2015-Jan-26 15:33N 37°57' E 023°38'0 0.0
2015-Jan-26 14:33N 37°57' E 023°38'0 0.0
2015-Jan-26 13:33N 37°57' E 023°38'0 0.0
2015-Jan-26 12:33N 37°57' E 023°38'0 0.0
2015-Jan-26 11:33N 37°57' E 023°38'0 0.0
2015-Jan-26 10:33N 37°57' E 023°38'0 0.0
2015-Jan-26 09:33N 37°57' E 023°38'0 0.0
2015-Jan-26 08:33N 37°57' E 023°38'0 0.0
2015-Jan-26 07:33N 37°57' E 023°38'0 0.0
2015-Jan-26 06:34N 37°57' E 023°38'0 0.0
2015-Jan-26 05:34N 37°57' E 023°38'0 0.0
2015-Jan-26 04:33N 37°57' E 023°38'0 0.0
2015-Jan-26 03:33N 37°57' E 023°38'0 0.0
2015-Jan-26 02:33N 37°57' E 023°38'0 0.0
2015-Jan-26 01:33N 37°57' E 023°38'0 0.0
2015-Jan-26 00:33N 37°57' E 023°38'0 0.0
2015-Jan-25 23:33N 37°57' E 023°38'0 0.0
2015-Jan-25 22:33N 37°57' E 023°38'0 0.0
2015-Jan-25 21:33N 37°57' E 023°38'1616.4
2015-Jan-25 20:33N 37°41' E 023°46'4720.8
2015-Jan-25 18:18N 37°31' E 024°44'1114.9
2015-Jan-25 17:33N 37°26' E 024°57'1818.3
2015-Jan-25 16:33N 37°28' E 025°19'1716.7
2015-Jan-25 15:33N 37°35' E 025°39'168 9.3
2015-Jan-24 21:33N 40°17' E 024°43'2221.6
2015-Jan-24 20:33N 40°36' E 024°30'2020.3
2015-Jan-24 19:33N 40°56' E 024°25'0 0.1
2015-Jan-24 18:34N 40°56' E 024°25'0 0.0
2015-Jan-24 17:34N 40°56' E 024°25'0 0.0
2015-Jan-24 16:34N 40°56' E 024°25'9 9.4
2015-Jan-24 15:33N 40°47' E 024°27'2221.8
2015-Jan-24 14:33N 40°26' E 024°36'2921.8
2015-Jan-24 13:15N 40°01' E 024°54'151 8.9
2015-Jan-23 20:20N 37°33' E 025°35'1418.5
2015-Jan-23 19:33N 37°28' E 025°19'1515.4
2015-Jan-23 18:34N 37°26' E 024°59'10 9.9
2015-Jan-23 17:34N 37°32' E 024°49'5020.6
2015-Jan-23 15:08N 37°39' E 023°47'1119.8
2015-Jan-23 14:34N 37°48' E 023°38'9 8.5
2015-Jan-23 13:33N 37°57' E 023°38'0 0.0
2015-Jan-23 12:33N 37°57' E 023°38'0 0.0
2015-Jan-23 11:33N 37°57' E 023°38'0 0.0
2015-Jan-23 10:33N 37°57' E 023°38'0 0.0
2015-Jan-23 09:33N 37°57' E 023°38'0 0.0
2015-Jan-23 07:23N 37°57' E 023°38'0 0.0
2015-Jan-23 06:33N 37°57' E 023°38'0 0.0
2015-Jan-23 05:33N 37°57' E 023°38'0 0.0
2015-Jan-23 04:33N 37°57' E 023°38'0 0.0
2015-Jan-23 03:33N 37°57' E 023°38'0 0.0
2015-Jan-23 02:33N 37°57' E 023°38'0 0.0
2015-Jan-23 01:33N 37°57' E 023°38'0 0.0
2015-Jan-23 00:33N 37°57' E 023°38'0 0.0
2015-Jan-22 23:33N 37°57' E 023°38'0 0.0
2015-Jan-22 22:33N 37°57' E 023°38'0 0.0
2015-Jan-22 21:33N 37°57' E 023°38'0 0.2
2015-Jan-22 20:33N 37°56' E 023°38'1919.4
2015-Jan-22 19:33N 37°39' E 023°50'4421.8
2015-Jan-22 17:33N 37°31' E 024°44'1413.8
2015-Jan-22 16:33N 37°27' E 025°00'1414.1
2015-Jan-22 15:33N 37°29' E 025°18'2620.8
2015-Jan-22 14:19N 37°30' E 025°50'19911.1
2015-Jan-21 20:26N 40°39' E 024°29'1719.3
2015-Jan-21 19:34N 40°56' E 024°25'0 0.0
2015-Jan-21 18:33N 40°56' E 024°25'0 0.0
2015-Jan-21 17:34N 40°56' E 024°25'0 0.0
2015-Jan-21 16:33N 40°56' E 024°25'1312.6
2015-Jan-21 15:34N 40°43' E 024°28'20010.5
2015-Jan-20 20:33N 37°31' E 025°39'1616.3
2015-Jan-20 19:34N 37°28' E 025°19'1716.6
2015-Jan-20 18:33N 37°26' E 024°59'9 9.4
2015-Jan-20 17:33N 37°32' E 024°49'4220.5
2015-Jan-20 15:31N 37°36' E 023°56'1819.0
2015-Jan-20 14:33N 37°48' E 023°38'9 9.0
2015-Jan-20 13:33N 37°57' E 023°38'0 0.0
2015-Jan-20 12:33N 37°57' E 023°38'0 0.0
2015-Jan-20 11:33N 37°57' E 023°38'0 0.0
2015-Jan-20 10:33N 37°57' E 023°38'0 0.0
2015-Jan-20 09:33N 37°57' E 023°38'0 0.0
2015-Jan-20 08:33N 37°57' E 023°38'  

Dump ship's entire track history